Airfield :
LOGIN :

Register | Disclaimer

   EN    FR    IT 

 










Legend :    VFR   Marginal VFR   IFR   Intensive IFR   Very Intensive IFR
Visi :
Ceiling :
>= 8 km
>= 3000ft
5 to 8 km
1000 to 3000 ft
1500m to 5 km
500 to 1000 ft
800 to 1500m
200 to 500 ft
< 800m
< 200 ft
Symbols :   Thunderstorms  Fog  Heavy snow  Heavy precipitations  Wind > 20 kt
SIGMETs :     Misc.  Thunderstorms  Icing  Turbulence  Mountain Waves  Volcanic Ashes






- Airport Elevation : 2031 ft


LEGT - Madrid Getafe

CURRENT METAR :
  • 191430Z 15006KT 100V210 CAVOK 26/03 Q1016

EXPIRED METARs :
  • 191400Z 12007KT 060V180 CAVOK 24/03 Q1016
  • 191330Z 11003KT 050V220 CAVOK 23/05 Q1017
  • 191300Z VRB03KT CAVOK 23/05 Q1017
  • 191230Z 09005KT 050V130 CAVOK 22/05 Q1018

TAF TAF LEGT
Valid from the 19 at 12:00 until the 20 at 12:00 UTC


191100Z 1912/2012 VRB05KT CAVOK TX26/1915Z TN12/2006Z
BECMG 1917/1919 17010KT
PROB30
TEMPO 1920/1924 17015G25KT
TEMPO 2005/2012 3000 RA SHRA SCT025TCU
PROB30
TEMPO 2006/2010 BKN012
PROB40
TEMPO 2006/2012 VRB05KT



MET'MAP, your aeronautical weather chart ! - Copyright ORBIFLY December 2007 - Disclaimer

ORBIFLY MET'MAP TEAM :

Programming & Development : Alexandra Zaïnal
Concept & original design : Baudouin d'Aumeries
Assistance for programming : Marc-Olivier Méhu
Technical & hardware support : Manuel Goepfert

Contact : metmap@orbifly.com




SOURCES & CREDITS :

   NOAA